sensor_id;sensor_type;location;lat;lon;timestamp;P1;durP1;ratioP1;P2;durP2;ratioP2
62258;SDS011;48241;48.824;10.102;2023-05-07T00:01:36;2.15;;;1.13;;
62258;SDS011;48241;48.824;10.102;2023-05-07T00:04:01;3.88;;;1.23;;
62258;SDS011;48241;48.824;10.102;2023-05-07T00:06:28;1.55;;;1.20;;
62258;SDS011;48241;48.824;10.102;2023-05-07T00:09:06;1.80;;;1.23;;
62258;SDS011;48241;48.824;10.102;2023-05-07T00:14:23;4.50;;;1.30;;
62258;SDS011;48241;48.824;10.102;2023-05-07T00:16:48;2.05;;;1.27;;
62258;SDS011;48241;48.824;10.102;2023-05-07T00:19:14;1.73;;;1.30;;
62258;SDS011;48241;48.824;10.102;2023-05-07T00:21:40;4.10;;;1.17;;
62258;SDS011;48241;48.824;10.102;2023-05-07T00:24:05;2.30;;;1.50;;
62258;SDS011;48241;48.824;10.102;2023-05-07T00:26:31;1.75;;;1.20;;
62258;SDS011;48241;48.824;10.102;2023-05-07T00:28:57;4.80;;;1.10;;
62258;SDS011;48241;48.824;10.102;2023-05-07T00:31:22;3.40;;;1.40;;
62258;SDS011;48241;48.824;10.102;2023-05-07T00:33:48;2.65;;;1.30;;
62258;SDS011;48241;48.824;10.102;2023-05-07T00:36:13;1.85;;;1.40;;
62258;SDS011;48241;48.824;10.102;2023-05-07T00:38:39;1.83;;;1.40;;
62258;SDS011;48241;48.824;10.102;2023-05-07T00:41:04;3.10;;;1.40;;
62258;SDS011;48241;48.824;10.102;2023-05-07T00:43:30;1.40;;;1.30;;
62258;SDS011;48241;48.824;10.102;2023-05-07T00:45:56;4.07;;;1.45;;
62258;SDS011;48241;48.824;10.102;2023-05-07T00:48:22;6.78;;;1.40;;
62258;SDS011;48241;48.824;10.102;2023-05-07T00:50:49;2.53;;;1.50;;
62258;SDS011;48241;48.824;10.102;2023-05-07T00:53:15;1.92;;;1.27;;
62258;SDS011;48241;48.824;10.102;2023-05-07T00:55:42;1.90;;;1.20;;
62258;SDS011;48241;48.824;10.102;2023-05-07T00:58:08;2.65;;;1.20;;
62258;SDS011;48241;48.824;10.102;2023-05-07T01:00:33;1.63;;;1.38;;
62258;SDS011;48241;48.824;10.102;2023-05-07T01:02:59;2.25;;;1.48;;
62258;SDS011;48241;48.824;10.102;2023-05-07T01:05:25;2.35;;;1.45;;
62258;SDS011;48241;48.824;10.102;2023-05-07T01:07:53;3.05;;;1.58;;
62258;SDS011;48241;48.824;10.102;2023-05-07T01:10:20;2.45;;;1.20;;
62258;SDS011;48241;48.824;10.102;2023-05-07T01:12:46;2.00;;;1.38;;
62258;SDS011;48241;48.824;10.102;2023-05-07T01:15:12;1.80;;;1.38;;
62258;SDS011;48241;48.824;10.102;2023-05-07T01:17:39;5.00;;;1.48;;
62258;SDS011;48241;48.824;10.102;2023-05-07T01:20:06;2.65;;;1.40;;
62258;SDS011;48241;48.824;10.102;2023-05-07T01:22:32;3.08;;;1.25;;
62258;SDS011;48241;48.824;10.102;2023-05-07T01:25:05;2.72;;;1.45;;
62258;SDS011;48241;48.824;10.102;2023-05-07T01:27:32;1.85;;;1.50;;
62258;SDS011;48241;48.824;10.102;2023-05-07T01:30:02;4.22;;;1.40;;
62258;SDS011;48241;48.824;10.102;2023-05-07T01:32:32;2.80;;;1.38;;
62258;SDS011;48241;48.824;10.102;2023-05-07T01:35:02;2.72;;;1.30;;
62258;SDS011;48241;48.824;10.102;2023-05-07T01:37:31;1.35;;;1.25;;
62258;SDS011;48241;48.824;10.102;2023-05-07T01:39:57;4.15;;;1.40;;
62258;SDS011;48241;48.824;10.102;2023-05-07T01:42:23;2.20;;;1.50;;
62258;SDS011;48241;48.824;10.102;2023-05-07T01:44:49;1.92;;;1.20;;
62258;SDS011;48241;48.824;10.102;2023-05-07T01:47:14;2.35;;;1.20;;
62258;SDS011;48241;48.824;10.102;2023-05-07T01:49:41;2.72;;;1.30;;
62258;SDS011;48241;48.824;10.102;2023-05-07T01:52:07;1.48;;;1.30;;
62258;SDS011;48241;48.824;10.102;2023-05-07T01:54:35;2.00;;;1.40;;
62258;SDS011;48241;48.824;10.102;2023-05-07T01:57:00;2.80;;;1.52;;
62258;SDS011;48241;48.824;10.102;2023-05-07T01:59:26;2.55;;;1.20;;
62258;SDS011;48241;48.824;10.102;2023-05-07T02:01:51;1.80;;;1.45;;
62258;SDS011;48241;48.824;10.102;2023-05-07T02:04:17;1.88;;;1.50;;
62258;SDS011;48241;48.824;10.102;2023-05-07T02:06:42;3.15;;;1.40;;
62258;SDS011;48241;48.824;10.102;2023-05-07T02:09:08;2.25;;;1.48;;
62258;SDS011;48241;48.824;10.102;2023-05-07T02:11:34;2.25;;;1.30;;
62258;SDS011;48241;48.824;10.102;2023-05-07T02:13:59;1.70;;;1.25;;
62258;SDS011;48241;48.824;10.102;2023-05-07T02:16:25;3.30;;;1.40;;
62258;SDS011;48241;48.824;10.102;2023-05-07T02:18:51;2.65;;;1.42;;
62258;SDS011;48241;48.824;10.102;2023-05-07T02:21:16;1.90;;;1.40;;
62258;SDS011;48241;48.824;10.102;2023-05-07T02:23:42;1.80;;;1.58;;
62258;SDS011;48241;48.824;10.102;2023-05-07T02:26:07;3.55;;;1.45;;
62258;SDS011;48241;48.824;10.102;2023-05-07T02:28:33;2.30;;;1.40;;
62258;SDS011;48241;48.824;10.102;2023-05-07T02:31:02;1.55;;;1.45;;
62258;SDS011;48241;48.824;10.102;2023-05-07T02:33:28;3.85;;;1.40;;
62258;SDS011;48241;48.824;10.102;2023-05-07T02:35:54;2.47;;;1.27;;
62258;SDS011;48241;48.824;10.102;2023-05-07T02:38:20;3.20;;;1.38;;
62258;SDS011;48241;48.824;10.102;2023-05-07T02:40:45;2.58;;;1.58;;
62258;SDS011;48241;48.824;10.102;2023-05-07T02:43:11;2.60;;;1.63;;
62258;SDS011;48241;48.824;10.102;2023-05-07T02:45:36;1.77;;;1.40;;
62258;SDS011;48241;48.824;10.102;2023-05-07T02:48:02;1.40;;;1.30;;
62258;SDS011;48241;48.824;10.102;2023-05-07T02:50:28;2.58;;;1.33;;
62258;SDS011;48241;48.824;10.102;2023-05-07T02:52:54;2.88;;;1.42;;
62258;SDS011;48241;48.824;10.102;2023-05-07T02:55:20;3.72;;;1.33;;
62258;SDS011;48241;48.824;10.102;2023-05-07T02:57:45;5.28;;;1.58;;
62258;SDS011;48241;48.824;10.102;2023-05-07T03:00:15;1.70;;;1.23;;
62258;SDS011;48241;48.824;10.102;2023-05-07T03:02:42;3.47;;;1.50;;
62258;SDS011;48241;48.824;10.102;2023-05-07T03:05:08;4.18;;;1.63;;
62258;SDS011;48241;48.824;10.102;2023-05-07T03:07:35;1.63;;;1.50;;
62258;SDS011;48241;48.824;10.102;2023-05-07T03:10:01;2.38;;;1.60;;
62258;SDS011;48241;48.824;10.102;2023-05-07T03:12:27;4.15;;;1.65;;
62258;SDS011;48241;48.824;10.102;2023-05-07T03:14:53;4.13;;;1.52;;
62258;SDS011;48241;48.824;10.102;2023-05-07T03:17:19;3.53;;;1.75;;
62258;SDS011;48241;48.824;10.102;2023-05-07T03:19:45;2.72;;;1.50;;
62258;SDS011;48241;48.824;10.102;2023-05-07T03:22:11;2.20;;;1.80;;
62258;SDS011;48241;48.824;10.102;2023-05-07T03:24:36;2.08;;;1.75;;
62258;SDS011;48241;48.824;10.102;2023-05-07T03:27:02;4.00;;;1.88;;
62258;SDS011;48241;48.824;10.102;2023-05-07T03:29:28;1.98;;;1.70;;
62258;SDS011;48241;48.824;10.102;2023-05-07T03:31:53;4.53;;;1.48;;
62258;SDS011;48241;48.824;10.102;2023-05-07T03:34:19;2.80;;;1.88;;
62258;SDS011;48241;48.824;10.102;2023-05-07T03:36:47;2.15;;;1.90;;
62258;SDS011;48241;48.824;10.102;2023-05-07T03:39:13;2.97;;;1.65;;
62258;SDS011;48241;48.824;10.102;2023-05-07T03:41:39;3.90;;;1.92;;
62258;SDS011;48241;48.824;10.102;2023-05-07T03:44:05;3.10;;;2.13;;
62258;SDS011;48241;48.824;10.102;2023-05-07T03:46:30;4.63;;;2.00;;
62258;SDS011;48241;48.824;10.102;2023-05-07T03:48:57;3.50;;;1.98;;
62258;SDS011;48241;48.824;10.102;2023-05-07T03:51:23;2.30;;;1.83;;
62258;SDS011;48241;48.824;10.102;2023-05-07T03:53:49;3.15;;;2.28;;
62258;SDS011;48241;48.824;10.102;2023-05-07T03:56:17;2.38;;;1.88;;
62258;SDS011;48241;48.824;10.102;2023-05-07T03:58:43;4.03;;;2.03;;
62258;SDS011;48241;48.824;10.102;2023-05-07T04:01:09;2.58;;;2.13;;
62258;SDS011;48241;48.824;10.102;2023-05-07T04:03:34;4.20;;;2.50;;
62258;SDS011;48241;48.824;10.102;2023-05-07T04:06:00;2.63;;;2.42;;
62258;SDS011;48241;48.824;10.102;2023-05-07T04:08:25;3.55;;;1.73;;
62258;SDS011;48241;48.824;10.102;2023-05-07T04:10:55;3.58;;;1.70;;
62258;SDS011;48241;48.824;10.102;2023-05-07T04:13:21;2.97;;;2.55;;
62258;SDS011;48241;48.824;10.102;2023-05-07T04:15:46;4.53;;;2.60;;
62258;SDS011;48241;48.824;10.102;2023-05-07T04:18:14;2.50;;;2.30;;
62258;SDS011;48241;48.824;10.102;2023-05-07T04:20:40;4.95;;;2.40;;
62258;SDS011;48241;48.824;10.102;2023-05-07T04:23:05;3.65;;;2.67;;
62258;SDS011;48241;48.824;10.102;2023-05-07T04:25:32;3.67;;;2.30;;
62258;SDS011;48241;48.824;10.102;2023-05-07T04:27:58;3.47;;;2.70;;
62258;SDS011;48241;48.824;10.102;2023-05-07T04:30:23;3.45;;;2.40;;
62258;SDS011;48241;48.824;10.102;2023-05-07T04:32:49;2.90;;;2.58;;
62258;SDS011;48241;48.824;10.102;2023-05-07T04:35:15;3.58;;;2.47;;
62258;SDS011;48241;48.824;10.102;2023-05-07T04:37:40;2.83;;;2.50;;
62258;SDS011;48241;48.824;10.102;2023-05-07T04:40:06;2.42;;;2.22;;
62258;SDS011;48241;48.824;10.102;2023-05-07T04:42:32;2.95;;;2.30;;
62258;SDS011;48241;48.824;10.102;2023-05-07T04:44:58;2.72;;;2.15;;
62258;SDS011;48241;48.824;10.102;2023-05-07T04:47:23;2.78;;;2.45;;
62258;SDS011;48241;48.824;10.102;2023-05-07T04:49:49;4.05;;;2.60;;
62258;SDS011;48241;48.824;10.102;2023-05-07T04:52:14;3.40;;;2.20;;
62258;SDS011;48241;48.824;10.102;2023-05-07T04:54:40;3.05;;;2.45;;
62258;SDS011;48241;48.824;10.102;2023-05-07T04:57:06;3.03;;;1.95;;
62258;SDS011;48241;48.824;10.102;2023-05-07T04:59:32;2.53;;;2.20;;
62258;SDS011;48241;48.824;10.102;2023-05-07T05:01:57;2.65;;;2.05;;
62258;SDS011;48241;48.824;10.102;2023-05-07T05:04:23;2.13;;;1.85;;
62258;SDS011;48241;48.824;10.102;2023-05-07T05:06:49;1.90;;;1.70;;
62258;SDS011;48241;48.824;10.102;2023-05-07T05:09:14;2.15;;;1.80;;
62258;SDS011;48241;48.824;10.102;2023-05-07T05:11:41;3.35;;;1.80;;
62258;SDS011;48241;48.824;10.102;2023-05-07T05:14:06;3.13;;;1.92;;
62258;SDS011;48241;48.824;10.102;2023-05-07T05:16:32;1.73;;;1.60;;
62258;SDS011;48241;48.824;10.102;2023-05-07T05:18:57;2.20;;;2.00;;
62258;SDS011;48241;48.824;10.102;2023-05-07T05:21:23;3.55;;;2.03;;
62258;SDS011;48241;48.824;10.102;2023-05-07T05:23:49;2.40;;;2.20;;
62258;SDS011;48241;48.824;10.102;2023-05-07T05:26:14;2.67;;;2.20;;
62258;SDS011;48241;48.824;10.102;2023-05-07T05:28:40;2.97;;;2.10;;
62258;SDS011;48241;48.824;10.102;2023-05-07T05:31:05;2.83;;;1.80;;
62258;SDS011;48241;48.824;10.102;2023-05-07T05:33:31;4.93;;;2.28;;
62258;SDS011;48241;48.824;10.102;2023-05-07T05:35:57;2.58;;;2.20;;
62258;SDS011;48241;48.824;10.102;2023-05-07T05:38:22;3.17;;;2.00;;
62258;SDS011;48241;48.824;10.102;2023-05-07T05:40:48;4.03;;;2.15;;
62258;SDS011;48241;48.824;10.102;2023-05-07T05:43:14;2.65;;;2.05;;
62258;SDS011;48241;48.824;10.102;2023-05-07T05:45:39;2.28;;;1.90;;
62258;SDS011;48241;48.824;10.102;2023-05-07T05:48:05;2.35;;;2.10;;
62258;SDS011;48241;48.824;10.102;2023-05-07T05:50:31;2.13;;;1.90;;
62258;SDS011;48241;48.824;10.102;2023-05-07T05:52:57;2.72;;;2.00;;
62258;SDS011;48241;48.824;10.102;2023-05-07T05:55:23;3.17;;;1.88;;
62258;SDS011;48241;48.824;10.102;2023-05-07T05:57:48;3.58;;;1.95;;
62258;SDS011;48241;48.824;10.102;2023-05-07T06:00:15;2.45;;;1.80;;
62258;SDS011;48241;48.824;10.102;2023-05-07T06:02:41;2.95;;;1.90;;
62258;SDS011;48241;48.824;10.102;2023-05-07T06:05:07;4.43;;;2.00;;
62258;SDS011;48241;48.824;10.102;2023-05-07T06:07:33;4.72;;;2.10;;
62258;SDS011;48241;48.824;10.102;2023-05-07T06:09:59;2.53;;;1.77;;
62258;SDS011;48241;48.824;10.102;2023-05-07T06:12:26;3.40;;;1.80;;
62258;SDS011;48241;48.824;10.102;2023-05-07T06:14:51;2.40;;;1.80;;
62258;SDS011;48241;48.824;10.102;2023-05-07T06:17:17;1.92;;;1.70;;
62258;SDS011;48241;48.824;10.102;2023-05-07T06:19:42;1.92;;;1.58;;
62258;SDS011;48241;48.824;10.102;2023-05-07T06:22:08;2.53;;;1.70;;
62258;SDS011;48241;48.824;10.102;2023-05-07T06:24:34;2.17;;;1.75;;
62258;SDS011;48241;48.824;10.102;2023-05-07T06:26:59;2.17;;;1.80;;
62258;SDS011;48241;48.824;10.102;2023-05-07T06:29:25;2.90;;;1.75;;
62258;SDS011;48241;48.824;10.102;2023-05-07T06:31:53;1.95;;;1.50;;
62258;SDS011;48241;48.824;10.102;2023-05-07T06:34:19;3.38;;;1.70;;
62258;SDS011;48241;48.824;10.102;2023-05-07T06:36:45;2.25;;;1.48;;
62258;SDS011;48241;48.824;10.102;2023-05-07T06:39:10;2.63;;;1.63;;
62258;SDS011;48241;48.824;10.102;2023-05-07T06:41:36;5.32;;;1.77;;
62258;SDS011;48241;48.824;10.102;2023-05-07T06:44:02;1.92;;;1.50;;
62258;SDS011;48241;48.824;10.102;2023-05-07T06:46:28;3.33;;;1.30;;
62258;SDS011;48241;48.824;10.102;2023-05-07T06:48:53;2.65;;;1.30;;
62258;SDS011;48241;48.824;10.102;2023-05-07T06:51:19;3.03;;;1.38;;
62258;SDS011;48241;48.824;10.102;2023-05-07T06:53:45;2.10;;;1.52;;
62258;SDS011;48241;48.824;10.102;2023-05-07T06:56:10;3.42;;;1.42;;
62258;SDS011;48241;48.824;10.102;2023-05-07T06:58:36;1.98;;;1.50;;
62258;SDS011;48241;48.824;10.102;2023-05-07T07:01:02;1.77;;;1.50;;
62258;SDS011;48241;48.824;10.102;2023-05-07T07:03:28;2.92;;;1.30;;
62258;SDS011;48241;48.824;10.102;2023-05-07T07:05:54;1.45;;;1.35;;
62258;SDS011;48241;48.824;10.102;2023-05-07T07:08:20;2.20;;;1.40;;
62258;SDS011;48241;48.824;10.102;2023-05-07T07:10:46;1.50;;;1.13;;
62258;SDS011;48241;48.824;10.102;2023-05-07T07:13:12;1.63;;;1.10;;
62258;SDS011;48241;48.824;10.102;2023-05-07T07:15:38;1.60;;;1.30;;
62258;SDS011;48241;48.824;10.102;2023-05-07T07:18:03;2.00;;;1.30;;
62258;SDS011;48241;48.824;10.102;2023-05-07T07:20:29;1.98;;;1.20;;
62258;SDS011;48241;48.824;10.102;2023-05-07T07:22:55;1.88;;;1.25;;
62258;SDS011;48241;48.824;10.102;2023-05-07T07:25:20;1.92;;;1.20;;
62258;SDS011;48241;48.824;10.102;2023-05-07T07:27:46;2.63;;;1.30;;
62258;SDS011;48241;48.824;10.102;2023-05-07T07:30:12;1.00;;;0.90;;
62258;SDS011;48241;48.824;10.102;2023-05-07T07:32:37;1.27;;;1.17;;
62258;SDS011;48241;48.824;10.102;2023-05-07T07:35:03;2.40;;;1.38;;
62258;SDS011;48241;48.824;10.102;2023-05-07T07:37:29;1.60;;;1.20;;
62258;SDS011;48241;48.824;10.102;2023-05-07T07:39:55;2.28;;;1.20;;
62258;SDS011;48241;48.824;10.102;2023-05-07T07:42:20;1.80;;;1.00;;
62258;SDS011;48241;48.824;10.102;2023-05-07T07:44:46;1.60;;;1.05;;
62258;SDS011;48241;48.824;10.102;2023-05-07T07:47:12;1.30;;;1.20;;
62258;SDS011;48241;48.824;10.102;2023-05-07T07:49:37;3.58;;;1.50;;
62258;SDS011;48241;48.824;10.102;2023-05-07T07:52:03;3.10;;;1.88;;
62258;SDS011;48241;48.824;10.102;2023-05-07T07:54:28;5.15;;;3.08;;
62258;SDS011;48241;48.824;10.102;2023-05-07T07:56:55;1.70;;;1.10;;
62258;SDS011;48241;48.824;10.102;2023-05-07T07:59:20;2.03;;;1.02;;
62258;SDS011;48241;48.824;10.102;2023-05-07T08:01:46;1.55;;;1.20;;
62258;SDS011;48241;48.824;10.102;2023-05-07T08:04:13;2.85;;;1.33;;
62258;SDS011;48241;48.824;10.102;2023-05-07T08:06:38;1.52;;;1.00;;
62258;SDS011;48241;48.824;10.102;2023-05-07T08:09:04;2.30;;;1.45;;
62258;SDS011;48241;48.824;10.102;2023-05-07T08:11:30;1.77;;;1.10;;
62258;SDS011;48241;48.824;10.102;2023-05-07T08:13:55;2.65;;;1.17;;
62258;SDS011;48241;48.824;10.102;2023-05-07T08:16:21;2.38;;;1.20;;
62258;SDS011;48241;48.824;10.102;2023-05-07T08:18:46;1.88;;;1.30;;
62258;SDS011;48241;48.824;10.102;2023-05-07T08:21:12;3.63;;;1.38;;
62258;SDS011;48241;48.824;10.102;2023-05-07T08:23:38;1.58;;;0.90;;
62258;SDS011;48241;48.824;10.102;2023-05-07T08:26:03;2.25;;;1.20;;
62258;SDS011;48241;48.824;10.102;2023-05-07T08:28:29;1.00;;;0.95;;
62258;SDS011;48241;48.824;10.102;2023-05-07T08:30:55;2.35;;;1.10;;
62258;SDS011;48241;48.824;10.102;2023-05-07T08:33:21;2.25;;;1.20;;
62258;SDS011;48241;48.824;10.102;2023-05-07T08:35:47;2.35;;;1.10;;
62258;SDS011;48241;48.824;10.102;2023-05-07T08:38:13;1.25;;;1.13;;
62258;SDS011;48241;48.824;10.102;2023-05-07T08:40:39;1.42;;;1.02;;
62258;SDS011;48241;48.824;10.102;2023-05-07T08:43:06;1.55;;;1.10;;
62258;SDS011;48241;48.824;10.102;2023-05-07T08:45:35;2.20;;;1.35;;
62258;SDS011;48241;48.824;10.102;2023-05-07T08:48:03;3.83;;;1.08;;
62258;SDS011;48241;48.824;10.102;2023-05-07T08:50:35;1.63;;;1.00;;
62258;SDS011;48241;48.824;10.102;2023-05-07T08:53:02;1.55;;;1.15;;
62258;SDS011;48241;48.824;10.102;2023-05-07T08:55:28;1.60;;;0.98;;
62258;SDS011;48241;48.824;10.102;2023-05-07T08:57:55;2.33;;;1.08;;
62258;SDS011;48241;48.824;10.102;2023-05-07T09:00:20;1.35;;;0.93;;
62258;SDS011;48241;48.824;10.102;2023-05-07T09:02:46;1.75;;;0.98;;
62258;SDS011;48241;48.824;10.102;2023-05-07T09:05:12;2.83;;;1.10;;
62258;SDS011;48241;48.824;10.102;2023-05-07T09:07:37;2.67;;;1.20;;
62258;SDS011;48241;48.824;10.102;2023-05-07T09:10:04;1.90;;;1.10;;
62258;SDS011;48241;48.824;10.102;2023-05-07T09:12:30;3.65;;;1.10;;
62258;SDS011;48241;48.824;10.102;2023-05-07T09:14:56;2.10;;;1.08;;
62258;SDS011;48241;48.824;10.102;2023-05-07T09:17:27;2.38;;;1.00;;
62258;SDS011;48241;48.824;10.102;2023-05-07T09:19:53;1.30;;;1.20;;
62258;SDS011;48241;48.824;10.102;2023-05-07T09:22:21;2.78;;;0.93;;
62258;SDS011;48241;48.824;10.102;2023-05-07T09:24:47;1.90;;;1.15;;
62258;SDS011;48241;48.824;10.102;2023-05-07T09:27:14;1.13;;;1.02;;
62258;SDS011;48241;48.824;10.102;2023-05-07T09:29:40;2.65;;;1.02;;
62258;SDS011;48241;48.824;10.102;2023-05-07T09:32:05;2.22;;;1.15;;
62258;SDS011;48241;48.824;10.102;2023-05-07T09:34:32;2.55;;;1.00;;
62258;SDS011;48241;48.824;10.102;2023-05-07T09:36:58;1.60;;;0.90;;
62258;SDS011;48241;48.824;10.102;2023-05-07T09:39:38;3.20;;;1.10;;
62258;SDS011;48241;48.824;10.102;2023-05-07T09:42:07;1.45;;;1.00;;
62258;SDS011;48241;48.824;10.102;2023-05-07T09:44:34;1.35;;;1.00;;
62258;SDS011;48241;48.824;10.102;2023-05-07T09:47:00;2.92;;;1.10;;
62258;SDS011;48241;48.824;10.102;2023-05-07T09:49:28;2.28;;;1.20;;
62258;SDS011;48241;48.824;10.102;2023-05-07T09:51:55;1.48;;;1.15;;
62258;SDS011;48241;48.824;10.102;2023-05-07T09:54:22;2.35;;;1.27;;
62258;SDS011;48241;48.824;10.102;2023-05-07T09:56:51;1.60;;;1.10;;
62258;SDS011;48241;48.824;10.102;2023-05-07T09:59:18;1.65;;;1.10;;
62258;SDS011;48241;48.824;10.102;2023-05-07T10:01:45;2.97;;;1.20;;
62258;SDS011;48241;48.824;10.102;2023-05-07T10:04:11;3.25;;;1.20;;
62258;SDS011;48241;48.824;10.102;2023-05-07T10:06:37;1.63;;;1.08;;
62258;SDS011;48241;48.824;10.102;2023-05-07T10:09:03;2.83;;;1.05;;
62258;SDS011;48241;48.824;10.102;2023-05-07T10:11:32;1.33;;;1.23;;
62258;SDS011;48241;48.824;10.102;2023-05-07T10:14:04;1.52;;;1.23;;
62258;SDS011;48241;48.824;10.102;2023-05-07T10:16:34;1.42;;;1.10;;
62258;SDS011;48241;48.824;10.102;2023-05-07T10:19:04;2.92;;;1.33;;
62258;SDS011;48241;48.824;10.102;2023-05-07T10:21:33;2.40;;;1.40;;
62258;SDS011;48241;48.824;10.102;2023-05-07T10:24:06;2.00;;;1.20;;
62258;SDS011;48241;48.824;10.102;2023-05-07T10:26:39;1.60;;;1.50;;
62258;SDS011;48241;48.824;10.102;2023-05-07T10:29:07;1.35;;;1.25;;
62258;SDS011;48241;48.824;10.102;2023-05-07T10:31:47;1.90;;;1.25;;
62258;SDS011;48241;48.824;10.102;2023-05-07T10:34:24;2.22;;;1.40;;
62258;SDS011;48241;48.824;10.102;2023-05-07T10:37:01;1.77;;;1.27;;
62258;SDS011;48241;48.824;10.102;2023-05-07T10:39:28;2.90;;;1.40;;
62258;SDS011;48241;48.824;10.102;2023-05-07T10:41:54;3.30;;;1.50;;
62258;SDS011;48241;48.824;10.102;2023-05-07T10:44:27;1.58;;;1.40;;
62258;SDS011;48241;48.824;10.102;2023-05-07T10:47:09;3.45;;;1.63;;
62258;SDS011;48241;48.824;10.102;2023-05-07T10:49:36;2.00;;;1.45;;
62258;SDS011;48241;48.824;10.102;2023-05-07T10:52:18;2.40;;;1.77;;
62258;SDS011;48241;48.824;10.102;2023-05-07T10:54:46;2.15;;;1.50;;
62258;SDS011;48241;48.824;10.102;2023-05-07T10:59:57;2.60;;;1.50;;
62258;SDS011;48241;48.824;10.102;2023-05-07T11:02:23;1.90;;;1.38;;
62258;SDS011;48241;48.824;10.102;2023-05-07T11:05:18;1.42;;;1.30;;
62258;SDS011;48241;48.824;10.102;2023-05-07T11:07:53;2.40;;;1.30;;
62258;SDS011;48241;48.824;10.102;2023-05-07T11:10:23;2.35;;;1.40;;
62258;SDS011;48241;48.824;10.102;2023-05-07T11:13:08;3.53;;;1.55;;
62258;SDS011;48241;48.824;10.102;2023-05-07T11:15:35;2.47;;;1.48;;
62258;SDS011;48241;48.824;10.102;2023-05-07T11:18:06;3.33;;;1.83;;
62258;SDS011;48241;48.824;10.102;2023-05-07T11:21:06;3.45;;;1.35;;
62258;SDS011;48241;48.824;10.102;2023-05-07T11:26:00;2.40;;;1.42;;
62258;SDS011;48241;48.824;10.102;2023-05-07T11:28:27;2.47;;;1.38;;
62258;SDS011;48241;48.824;10.102;2023-05-07T11:30:53;3.20;;;1.40;;
62258;SDS011;48241;48.824;10.102;2023-05-07T11:33:19;1.77;;;1.30;;
62258;SDS011;48241;48.824;10.102;2023-05-07T11:35:45;2.03;;;1.30;;
62258;SDS011;48241;48.824;10.102;2023-05-07T11:38:12;2.78;;;1.40;;
62258;SDS011;48241;48.824;10.102;2023-05-07T11:40:50;1.35;;;1.10;;
62258;SDS011;48241;48.824;10.102;2023-05-07T11:43:19;3.30;;;1.08;;
62258;SDS011;48241;48.824;10.102;2023-05-07T11:45:45;2.15;;;1.30;;
62258;SDS011;48241;48.824;10.102;2023-05-07T11:48:11;2.42;;;1.23;;
62258;SDS011;48241;48.824;10.102;2023-05-07T11:50:49;2.28;;;1.20;;
62258;SDS011;48241;48.824;10.102;2023-05-07T11:53:25;1.35;;;0.95;;
62258;SDS011;48241;48.824;10.102;2023-05-07T11:55:52;2.17;;;1.20;;
62258;SDS011;48241;48.824;10.102;2023-05-07T11:58:22;1.70;;;1.20;;
62258;SDS011;48241;48.824;10.102;2023-05-07T12:00:49;1.42;;;1.15;;
62258;SDS011;48241;48.824;10.102;2023-05-07T12:03:15;2.67;;;1.05;;
62258;SDS011;48241;48.824;10.102;2023-05-07T12:05:41;1.95;;;1.00;;
62258;SDS011;48241;48.824;10.102;2023-05-07T12:08:07;1.80;;;1.38;;
62258;SDS011;48241;48.824;10.102;2023-05-07T12:10:32;1.85;;;1.00;;
62258;SDS011;48241;48.824;10.102;2023-05-07T12:12:58;1.55;;;1.20;;
62258;SDS011;48241;48.824;10.102;2023-05-07T12:15:24;1.83;;;1.02;;
62258;SDS011;48241;48.824;10.102;2023-05-07T12:17:49;2.80;;;1.25;;
62258;SDS011;48241;48.824;10.102;2023-05-07T12:20:17;1.98;;;1.20;;
62258;SDS011;48241;48.824;10.102;2023-05-07T12:22:43;2.28;;;1.10;;
62258;SDS011;48241;48.824;10.102;2023-05-07T12:25:09;1.88;;;1.20;;
62258;SDS011;48241;48.824;10.102;2023-05-07T12:27:36;2.20;;;1.27;;
62258;SDS011;48241;48.824;10.102;2023-05-07T12:30:04;2.15;;;1.10;;
62258;SDS011;48241;48.824;10.102;2023-05-07T12:32:29;1.38;;;1.17;;
62258;SDS011;48241;48.824;10.102;2023-05-07T12:34:55;1.25;;;1.15;;
62258;SDS011;48241;48.824;10.102;2023-05-07T12:37:24;1.73;;;1.10;;
62258;SDS011;48241;48.824;10.102;2023-05-07T12:40:06;2.28;;;1.42;;
62258;SDS011;48241;48.824;10.102;2023-05-07T12:42:37;2.97;;;1.50;;
62258;SDS011;48241;48.824;10.102;2023-05-07T12:45:10;2.13;;;1.30;;
62258;SDS011;48241;48.824;10.102;2023-05-07T12:47:36;3.47;;;1.38;;
62258;SDS011;48241;48.824;10.102;2023-05-07T12:50:04;1.83;;;1.10;;
62258;SDS011;48241;48.824;10.102;2023-05-07T12:52:31;2.45;;;1.10;;
62258;SDS011;48241;48.824;10.102;2023-05-07T12:54:57;1.73;;;1.27;;
62258;SDS011;48241;48.824;10.102;2023-05-07T12:57:30;2.20;;;1.20;;
62258;SDS011;48241;48.824;10.102;2023-05-07T12:59:57;3.15;;;1.20;;
62258;SDS011;48241;48.824;10.102;2023-05-07T13:02:31;2.28;;;1.13;;
62258;SDS011;48241;48.824;10.102;2023-05-07T13:04:58;1.55;;;1.10;;
62258;SDS011;48241;48.824;10.102;2023-05-07T13:07:57;1.83;;;1.40;;
62258;SDS011;48241;48.824;10.102;2023-05-07T13:10:22;2.25;;;1.20;;
62258;SDS011;48241;48.824;10.102;2023-05-07T13:12:49;1.20;;;1.10;;
62258;SDS011;48241;48.824;10.102;2023-05-07T13:15:15;2.10;;;1.38;;
62258;SDS011;48241;48.824;10.102;2023-05-07T13:17:40;1.73;;;1.33;;
62258;SDS011;48241;48.824;10.102;2023-05-07T13:20:06;2.17;;;1.10;;
62258;SDS011;48241;48.824;10.102;2023-05-07T13:22:34;1.40;;;0.98;;
62258;SDS011;48241;48.824;10.102;2023-05-07T13:24:59;1.95;;;1.15;;
62258;SDS011;48241;48.824;10.102;2023-05-07T13:27:25;1.80;;;1.20;;
62258;SDS011;48241;48.824;10.102;2023-05-07T13:29:51;2.13;;;1.15;;
62258;SDS011;48241;48.824;10.102;2023-05-07T13:32:16;1.48;;;1.23;;
62258;SDS011;48241;48.824;10.102;2023-05-07T13:34:42;1.85;;;1.30;;
62258;SDS011;48241;48.824;10.102;2023-05-07T13:37:08;1.90;;;1.13;;
62258;SDS011;48241;48.824;10.102;2023-05-07T13:39:33;1.95;;;1.23;;
62258;SDS011;48241;48.824;10.102;2023-05-07T13:41:59;4.35;;;1.33;;
62258;SDS011;48241;48.824;10.102;2023-05-07T13:44:24;1.75;;;1.30;;
62258;SDS011;48241;48.824;10.102;2023-05-07T13:46:51;2.35;;;1.60;;
62258;SDS011;48241;48.824;10.102;2023-05-07T13:49:16;2.88;;;1.50;;
62258;SDS011;48241;48.824;10.102;2023-05-07T13:51:42;2.90;;;1.30;;
62258;SDS011;48241;48.824;10.102;2023-05-07T13:54:07;1.60;;;1.30;;
62258;SDS011;48241;48.824;10.102;2023-05-07T13:56:33;1.40;;;1.30;;
62258;SDS011;48241;48.824;10.102;2023-05-07T13:58:59;1.45;;;1.35;;
62258;SDS011;48241;48.824;10.102;2023-05-07T14:01:24;3.00;;;1.58;;
62258;SDS011;48241;48.824;10.102;2023-05-07T14:03:50;1.95;;;1.20;;
62258;SDS011;48241;48.824;10.102;2023-05-07T14:06:18;2.95;;;1.35;;
62258;SDS011;48241;48.824;10.102;2023-05-07T14:08:44;2.28;;;1.30;;
62258;SDS011;48241;48.824;10.102;2023-05-07T14:11:10;2.22;;;1.48;;
62258;SDS011;48241;48.824;10.102;2023-05-07T14:13:35;4.18;;;1.48;;
62258;SDS011;48241;48.824;10.102;2023-05-07T14:16:02;1.70;;;1.42;;
62258;SDS011;48241;48.824;10.102;2023-05-07T14:18:28;2.70;;;1.42;;
62258;SDS011;48241;48.824;10.102;2023-05-07T14:20:54;3.00;;;1.27;;
62258;SDS011;48241;48.824;10.102;2023-05-07T14:23:20;1.55;;;1.30;;
62258;SDS011;48241;48.824;10.102;2023-05-07T14:25:50;1.35;;;1.20;;
62258;SDS011;48241;48.824;10.102;2023-05-07T14:28:16;2.10;;;1.50;;
62258;SDS011;48241;48.824;10.102;2023-05-07T14:30:41;1.98;;;1.25;;
62258;SDS011;48241;48.824;10.102;2023-05-07T14:33:07;4.15;;;1.25;;
62258;SDS011;48241;48.824;10.102;2023-05-07T14:35:32;3.47;;;1.40;;
62258;SDS011;48241;48.824;10.102;2023-05-07T14:37:58;1.58;;;1.45;;
62258;SDS011;48241;48.824;10.102;2023-05-07T14:40:23;2.10;;;1.35;;